sensor_id;sensor_type;location;lat;lon;timestamp;P1;durP1;ratioP1;P2;durP2;ratioP2
45909;SDS011;31622;55.416;37.840;2022-07-06T00:01:46;10.27;;;8.88;;
45909;SDS011;31622;55.416;37.840;2022-07-06T00:04:11;10.73;;;9.63;;
45909;SDS011;31622;55.416;37.840;2022-07-06T00:06:37;11.98;;;10.07;;
45909;SDS011;31622;55.416;37.840;2022-07-06T00:09:03;13.02;;;9.90;;
45909;SDS011;31622;55.416;37.840;2022-07-06T00:11:30;10.23;;;9.23;;
45909;SDS011;31622;55.416;37.840;2022-07-06T00:13:55;12.75;;;10.25;;
45909;SDS011;31622;55.416;37.840;2022-07-06T00:16:24;10.88;;;9.38;;
45909;SDS011;31622;55.416;37.840;2022-07-06T00:18:50;11.48;;;10.27;;
45909;SDS011;31622;55.416;37.840;2022-07-06T00:21:15;11.85;;;9.82;;
45909;SDS011;31622;55.416;37.840;2022-07-06T00:23:41;14.68;;;11.00;;
45909;SDS011;31622;55.416;37.840;2022-07-06T00:26:07;15.15;;;10.80;;
45909;SDS011;31622;55.416;37.840;2022-07-06T00:28:33;14.60;;;10.88;;
45909;SDS011;31622;55.416;37.840;2022-07-06T00:30:58;12.73;;;11.27;;
45909;SDS011;31622;55.416;37.840;2022-07-06T00:33:24;11.65;;;10.45;;
45909;SDS011;31622;55.416;37.840;2022-07-06T00:35:49;14.02;;;10.75;;
45909;SDS011;31622;55.416;37.840;2022-07-06T00:38:15;12.38;;;10.63;;
45909;SDS011;31622;55.416;37.840;2022-07-06T00:40:40;13.05;;;10.10;;
45909;SDS011;31622;55.416;37.840;2022-07-06T00:43:06;12.88;;;10.57;;
45909;SDS011;31622;55.416;37.840;2022-07-06T00:45:32;14.00;;;10.65;;
45909;SDS011;31622;55.416;37.840;2022-07-06T00:47:57;12.10;;;10.30;;
45909;SDS011;31622;55.416;37.840;2022-07-06T00:50:23;13.82;;;11.02;;
45909;SDS011;31622;55.416;37.840;2022-07-06T00:52:52;14.20;;;10.93;;
45909;SDS011;31622;55.416;37.840;2022-07-06T00:57:51;13.40;;;10.95;;
45909;SDS011;31622;55.416;37.840;2022-07-06T01:00:17;13.40;;;10.65;;
45909;SDS011;31622;55.416;37.840;2022-07-06T01:02:44;12.77;;;11.00;;
45909;SDS011;31622;55.416;37.840;2022-07-06T01:05:11;13.48;;;10.43;;
45909;SDS011;31622;55.416;37.840;2022-07-06T01:07:37;12.60;;;11.32;;
45909;SDS011;31622;55.416;37.840;2022-07-06T01:10:05;12.50;;;10.77;;
45909;SDS011;31622;55.416;37.840;2022-07-06T01:12:31;12.02;;;10.43;;
45909;SDS011;31622;55.416;37.840;2022-07-06T01:14:59;13.73;;;11.55;;
45909;SDS011;31622;55.416;37.840;2022-07-06T01:17:24;12.23;;;10.88;;
45909;SDS011;31622;55.416;37.840;2022-07-06T01:19:50;11.98;;;10.77;;
45909;SDS011;31622;55.416;37.840;2022-07-06T01:22:16;12.43;;;10.32;;
45909;SDS011;31622;55.416;37.840;2022-07-06T01:24:42;11.60;;;9.82;;
45909;SDS011;31622;55.416;37.840;2022-07-06T01:27:08;11.65;;;10.43;;
45909;SDS011;31622;55.416;37.840;2022-07-06T01:29:34;14.57;;;10.98;;
45909;SDS011;31622;55.416;37.840;2022-07-06T01:32:00;14.90;;;10.73;;
45909;SDS011;31622;55.416;37.840;2022-07-06T01:34:26;13.27;;;10.70;;
45909;SDS011;31622;55.416;37.840;2022-07-06T01:36:52;12.90;;;10.90;;
45909;SDS011;31622;55.416;37.840;2022-07-06T01:39:18;13.02;;;10.90;;
45909;SDS011;31622;55.416;37.840;2022-07-06T01:41:44;12.18;;;10.63;;
45909;SDS011;31622;55.416;37.840;2022-07-06T01:44:09;11.77;;;9.98;;
45909;SDS011;31622;55.416;37.840;2022-07-06T01:46:36;12.10;;;10.32;;
45909;SDS011;31622;55.416;37.840;2022-07-06T01:49:03;12.10;;;10.45;;
45909;SDS011;31622;55.416;37.840;2022-07-06T01:51:30;12.07;;;10.65;;
45909;SDS011;31622;55.416;37.840;2022-07-06T01:53:57;13.10;;;10.65;;
45909;SDS011;31622;55.416;37.840;2022-07-06T01:56:24;11.60;;;10.27;;
45909;SDS011;31622;55.416;37.840;2022-07-06T01:58:53;12.30;;;10.13;;
45909;SDS011;31622;55.416;37.840;2022-07-06T02:01:20;12.57;;;9.98;;
45909;SDS011;31622;55.416;37.840;2022-07-06T02:03:46;13.02;;;10.43;;
45909;SDS011;31622;55.416;37.840;2022-07-06T02:06:12;12.48;;;10.25;;
45909;SDS011;31622;55.416;37.840;2022-07-06T02:08:39;12.52;;;9.95;;
45909;SDS011;31622;55.416;37.840;2022-07-06T02:11:06;11.18;;;9.98;;
45909;SDS011;31622;55.416;37.840;2022-07-06T02:13:35;11.23;;;10.05;;
45909;SDS011;31622;55.416;37.840;2022-07-06T02:16:01;12.95;;;10.63;;
45909;SDS011;31622;55.416;37.840;2022-07-06T02:18:27;14.52;;;10.52;;
45909;SDS011;31622;55.416;37.840;2022-07-06T02:20:55;10.57;;;9.48;;
45909;SDS011;31622;55.416;37.840;2022-07-06T02:23:21;12.90;;;9.93;;
45909;SDS011;31622;55.416;37.840;2022-07-06T02:25:47;14.55;;;10.27;;
45909;SDS011;31622;55.416;37.840;2022-07-06T02:28:13;13.52;;;10.35;;
45909;SDS011;31622;55.416;37.840;2022-07-06T02:30:39;10.60;;;9.50;;
45909;SDS011;31622;55.416;37.840;2022-07-06T02:33:05;12.20;;;9.88;;
45909;SDS011;31622;55.416;37.840;2022-07-06T02:35:31;12.68;;;11.02;;
45909;SDS011;31622;55.416;37.840;2022-07-06T02:37:57;11.90;;;10.27;;
45909;SDS011;31622;55.416;37.840;2022-07-06T02:40:22;13.60;;;10.75;;
45909;SDS011;31622;55.416;37.840;2022-07-06T02:42:48;11.38;;;10.15;;
45909;SDS011;31622;55.416;37.840;2022-07-06T02:45:14;11.95;;;10.27;;
45909;SDS011;31622;55.416;37.840;2022-07-06T02:47:40;12.15;;;10.18;;
45909;SDS011;31622;55.416;37.840;2022-07-06T02:50:07;12.43;;;10.30;;
45909;SDS011;31622;55.416;37.840;2022-07-06T02:52:33;10.90;;;9.80;;
45909;SDS011;31622;55.416;37.840;2022-07-06T02:55:00;12.60;;;10.30;;
45909;SDS011;31622;55.416;37.840;2022-07-06T02:57:26;12.68;;;10.50;;
45909;SDS011;31622;55.416;37.840;2022-07-06T02:59:51;14.10;;;11.20;;
45909;SDS011;31622;55.416;37.840;2022-07-06T03:02:18;14.20;;;10.95;;
45909;SDS011;31622;55.416;37.840;2022-07-06T03:04:44;14.18;;;10.10;;
45909;SDS011;31622;55.416;37.840;2022-07-06T03:07:14;11.73;;;10.50;;
45909;SDS011;31622;55.416;37.840;2022-07-06T03:09:39;13.05;;;10.73;;
45909;SDS011;31622;55.416;37.840;2022-07-06T03:12:05;32.65;;;12.68;;
45909;SDS011;31622;55.416;37.840;2022-07-06T03:14:33;26.27;;;12.75;;
45909;SDS011;31622;55.416;37.840;2022-07-06T03:16:59;27.88;;;13.07;;
45909;SDS011;31622;55.416;37.840;2022-07-06T03:19:25;18.50;;;12.50;;
45909;SDS011;31622;55.416;37.840;2022-07-06T03:21:51;21.23;;;13.10;;
45909;SDS011;31622;55.416;37.840;2022-07-06T03:24:16;21.23;;;11.85;;
45909;SDS011;31622;55.416;37.840;2022-07-06T03:26:42;21.25;;;12.35;;
45909;SDS011;31622;55.416;37.840;2022-07-06T03:29:08;14.07;;;10.90;;
45909;SDS011;31622;55.416;37.840;2022-07-06T03:31:34;16.50;;;11.70;;
45909;SDS011;31622;55.416;37.840;2022-07-06T03:34:00;13.20;;;11.35;;
45909;SDS011;31622;55.416;37.840;2022-07-06T03:36:28;13.70;;;10.75;;
45909;SDS011;31622;55.416;37.840;2022-07-06T03:38:54;14.80;;;11.25;;
45909;SDS011;31622;55.416;37.840;2022-07-06T03:41:19;14.65;;;10.77;;
45909;SDS011;31622;55.416;37.840;2022-07-06T03:43:46;12.88;;;11.40;;
45909;SDS011;31622;55.416;37.840;2022-07-06T03:46:12;14.25;;;11.77;;
45909;SDS011;31622;55.416;37.840;2022-07-06T03:48:38;17.77;;;12.70;;
45909;SDS011;31622;55.416;37.840;2022-07-06T03:51:05;14.70;;;11.70;;
45909;SDS011;31622;55.416;37.840;2022-07-06T03:53:31;17.10;;;12.43;;
45909;SDS011;31622;55.416;37.840;2022-07-06T03:55:57;14.93;;;13.32;;
45909;SDS011;31622;55.416;37.840;2022-07-06T03:58:42;14.70;;;13.18;;
45909;SDS011;31622;55.416;37.840;2022-07-06T04:01:08;13.80;;;12.15;;
45909;SDS011;31622;55.416;37.840;2022-07-06T04:03:33;16.70;;;12.65;;
45909;SDS011;31622;55.416;37.840;2022-07-06T04:05:59;12.57;;;11.27;;
45909;SDS011;31622;55.416;37.840;2022-07-06T04:08:25;13.32;;;11.50;;
45909;SDS011;31622;55.416;37.840;2022-07-06T04:10:55;14.50;;;12.65;;
45909;SDS011;31622;55.416;37.840;2022-07-06T04:13:21;15.75;;;12.90;;
45909;SDS011;31622;55.416;37.840;2022-07-06T04:15:47;15.20;;;12.48;;
45909;SDS011;31622;55.416;37.840;2022-07-06T04:18:14;14.10;;;12.60;;
45909;SDS011;31622;55.416;37.840;2022-07-06T04:20:52;14.00;;;11.98;;
45909;SDS011;31622;55.416;37.840;2022-07-06T04:23:18;12.13;;;10.75;;
45909;SDS011;31622;55.416;37.840;2022-07-06T04:25:44;13.15;;;11.80;;
45909;SDS011;31622;55.416;37.840;2022-07-06T04:28:11;14.18;;;11.55;;
45909;SDS011;31622;55.416;37.840;2022-07-06T04:30:38;16.38;;;12.68;;
45909;SDS011;31622;55.416;37.840;2022-07-06T04:33:07;13.15;;;11.77;;
45909;SDS011;31622;55.416;37.840;2022-07-06T04:35:34;17.58;;;13.73;;
45909;SDS011;31622;55.416;37.840;2022-07-06T04:38:00;16.70;;;13.25;;
45909;SDS011;31622;55.416;37.840;2022-07-06T04:40:25;13.75;;;11.93;;
45909;SDS011;31622;55.416;37.840;2022-07-06T04:42:56;12.45;;;11.20;;
45909;SDS011;31622;55.416;37.840;2022-07-06T04:45:23;13.93;;;11.45;;
45909;SDS011;31622;55.416;37.840;2022-07-06T04:47:49;15.15;;;12.65;;
45909;SDS011;31622;55.416;37.840;2022-07-06T04:50:17;12.93;;;11.32;;
45909;SDS011;31622;55.416;37.840;2022-07-06T04:52:45;14.00;;;12.60;;
45909;SDS011;31622;55.416;37.840;2022-07-06T04:55:10;12.88;;;10.85;;
45909;SDS011;31622;55.416;37.840;2022-07-06T04:57:36;21.13;;;11.38;;
45909;SDS011;31622;55.416;37.840;2022-07-06T05:00:03;12.90;;;11.10;;
45909;SDS011;31622;55.416;37.840;2022-07-06T05:02:32;14.05;;;10.82;;
45909;SDS011;31622;55.416;37.840;2022-07-06T05:04:58;11.73;;;9.93;;
45909;SDS011;31622;55.416;37.840;2022-07-06T05:07:24;11.13;;;9.57;;
45909;SDS011;31622;55.416;37.840;2022-07-06T05:09:54;12.98;;;10.05;;
45909;SDS011;31622;55.416;37.840;2022-07-06T05:12:20;13.20;;;10.23;;
45909;SDS011;31622;55.416;37.840;2022-07-06T05:14:46;11.63;;;10.43;;
45909;SDS011;31622;55.416;37.840;2022-07-06T05:17:12;12.48;;;9.07;;
45909;SDS011;31622;55.416;37.840;2022-07-06T05:19:37;10.00;;;9.00;;
45909;SDS011;31622;55.416;37.840;2022-07-06T05:22:03;11.32;;;9.25;;
45909;SDS011;31622;55.416;37.840;2022-07-06T05:24:29;14.30;;;11.07;;
45909;SDS011;31622;55.416;37.840;2022-07-06T05:26:55;13.32;;;10.52;;
45909;SDS011;31622;55.416;37.840;2022-07-06T05:29:20;11.57;;;9.57;;
45909;SDS011;31622;55.416;37.840;2022-07-06T05:31:46;14.13;;;10.15;;
45909;SDS011;31622;55.416;37.840;2022-07-06T05:34:12;12.73;;;10.85;;
45909;SDS011;31622;55.416;37.840;2022-07-06T05:36:38;10.57;;;9.20;;
45909;SDS011;31622;55.416;37.840;2022-07-06T05:39:04;11.90;;;9.20;;
45909;SDS011;31622;55.416;37.840;2022-07-06T05:41:30;15.00;;;11.18;;
45909;SDS011;31622;55.416;37.840;2022-07-06T05:43:55;11.07;;;9.98;;
45909;SDS011;31622;55.416;37.840;2022-07-06T05:46:21;12.52;;;11.00;;
45909;SDS011;31622;55.416;37.840;2022-07-06T05:48:48;13.77;;;11.05;;
45909;SDS011;31622;55.416;37.840;2022-07-06T05:51:33;13.90;;;11.52;;
45909;SDS011;31622;55.416;37.840;2022-07-06T05:53:58;12.02;;;10.02;;
45909;SDS011;31622;55.416;37.840;2022-07-06T05:56:24;10.73;;;9.43;;
45909;SDS011;31622;55.416;37.840;2022-07-06T05:58:51;12.15;;;9.90;;
45909;SDS011;31622;55.416;37.840;2022-07-06T06:01:17;12.63;;;10.10;;
45909;SDS011;31622;55.416;37.840;2022-07-06T06:03:49;13.43;;;11.05;;
45909;SDS011;31622;55.416;37.840;2022-07-06T06:06:15;14.63;;;10.35;;
45909;SDS011;31622;55.416;37.840;2022-07-06T06:08:40;13.95;;;12.55;;
45909;SDS011;31622;55.416;37.840;2022-07-06T06:11:06;15.48;;;12.07;;
45909;SDS011;31622;55.416;37.840;2022-07-06T06:13:33;14.15;;;12.15;;
45909;SDS011;31622;55.416;37.840;2022-07-06T06:15:58;15.15;;;12.38;;
45909;SDS011;31622;55.416;37.840;2022-07-06T06:18:24;10.82;;;9.60;;
45909;SDS011;31622;55.416;37.840;2022-07-06T06:20:49;12.57;;;10.95;;
45909;SDS011;31622;55.416;37.840;2022-07-06T06:23:15;10.63;;;9.55;;
45909;SDS011;31622;55.416;37.840;2022-07-06T06:25:40;12.52;;;11.23;;
45909;SDS011;31622;55.416;37.840;2022-07-06T06:28:07;14.65;;;11.43;;
45909;SDS011;31622;55.416;37.840;2022-07-06T06:30:33;14.63;;;10.55;;
45909;SDS011;31622;55.416;37.840;2022-07-06T06:33:10;12.48;;;9.50;;
45909;SDS011;31622;55.416;37.840;2022-07-06T06:35:43;11.15;;;9.30;;
45909;SDS011;31622;55.416;37.840;2022-07-06T06:38:15;10.52;;;9.38;;
45909;SDS011;31622;55.416;37.840;2022-07-06T06:40:42;11.52;;;9.38;;
45909;SDS011;31622;55.416;37.840;2022-07-06T06:43:08;12.02;;;10.63;;
45909;SDS011;31622;55.416;37.840;2022-07-06T06:45:40;11.27;;;9.77;;
45909;SDS011;31622;55.416;37.840;2022-07-06T06:48:06;11.23;;;9.43;;
45909;SDS011;31622;55.416;37.840;2022-07-06T06:50:32;12.05;;;9.88;;
45909;SDS011;31622;55.416;37.840;2022-07-06T06:52:57;10.35;;;8.90;;
45909;SDS011;31622;55.416;37.840;2022-07-06T06:55:23;10.68;;;9.57;;
45909;SDS011;31622;55.416;37.840;2022-07-06T06:57:49;10.85;;;9.70;;
45909;SDS011;31622;55.416;37.840;2022-07-06T07:00:15;10.13;;;9.02;;
45909;SDS011;31622;55.416;37.840;2022-07-06T07:02:40;10.52;;;9.43;;
45909;SDS011;31622;55.416;37.840;2022-07-06T07:05:06;11.82;;;10.55;;
45909;SDS011;31622;55.416;37.840;2022-07-06T07:07:32;10.05;;;8.85;;
45909;SDS011;31622;55.416;37.840;2022-07-06T07:09:58;10.32;;;8.90;;
45909;SDS011;31622;55.416;37.840;2022-07-06T07:12:24;10.15;;;9.07;;
45909;SDS011;31622;55.416;37.840;2022-07-06T07:14:49;10.40;;;9.30;;
45909;SDS011;31622;55.416;37.840;2022-07-06T07:17:16;10.13;;;9.07;;
45909;SDS011;31622;55.416;37.840;2022-07-06T07:19:42;10.15;;;9.15;;
45909;SDS011;31622;55.416;37.840;2022-07-06T07:22:07;10.85;;;9.40;;
45909;SDS011;31622;55.416;37.840;2022-07-06T07:24:33;11.02;;;9.80;;
45909;SDS011;31622;55.416;37.840;2022-07-06T07:26:58;11.00;;;9.48;;
45909;SDS011;31622;55.416;37.840;2022-07-06T07:29:24;12.07;;;9.23;;
45909;SDS011;31622;55.416;37.840;2022-07-06T07:31:49;10.73;;;9.63;;
45909;SDS011;31622;55.416;37.840;2022-07-06T07:34:15;14.05;;;11.88;;
45909;SDS011;31622;55.416;37.840;2022-07-06T07:36:41;10.55;;;9.23;;
45909;SDS011;31622;55.416;37.840;2022-07-06T07:39:07;12.38;;;9.95;;
45909;SDS011;31622;55.416;37.840;2022-07-06T07:41:32;10.73;;;9.63;;
45909;SDS011;31622;55.416;37.840;2022-07-06T07:43:58;12.57;;;10.68;;
45909;SDS011;31622;55.416;37.840;2022-07-06T07:46:23;11.95;;;10.75;;
45909;SDS011;31622;55.416;37.840;2022-07-06T07:48:49;13.80;;;10.68;;
45909;SDS011;31622;55.416;37.840;2022-07-06T07:51:15;10.52;;;9.43;;
45909;SDS011;31622;55.416;37.840;2022-07-06T07:53:41;11.35;;;10.18;;
45909;SDS011;31622;55.416;37.840;2022-07-06T07:56:07;11.23;;;10.02;;
45909;SDS011;31622;55.416;37.840;2022-07-06T07:58:32;11.30;;;9.95;;
45909;SDS011;31622;55.416;37.840;2022-07-06T08:00:59;11.45;;;10.27;;
45909;SDS011;31622;55.416;37.840;2022-07-06T08:03:25;11.38;;;10.27;;
45909;SDS011;31622;55.416;37.840;2022-07-06T08:05:51;14.38;;;10.80;;
45909;SDS011;31622;55.416;37.840;2022-07-06T08:08:16;12.07;;;10.15;;
45909;SDS011;31622;55.416;37.840;2022-07-06T08:10:42;12.35;;;10.48;;
45909;SDS011;31622;55.416;37.840;2022-07-06T08:13:08;14.95;;;10.57;;
45909;SDS011;31622;55.416;37.840;2022-07-06T08:15:34;11.60;;;10.40;;
45909;SDS011;31622;55.416;37.840;2022-07-06T08:17:59;14.50;;;10.73;;
45909;SDS011;31622;55.416;37.840;2022-07-06T08:20:25;13.13;;;10.77;;
45909;SDS011;31622;55.416;37.840;2022-07-06T08:22:51;11.15;;;10.05;;
45909;SDS011;31622;55.416;37.840;2022-07-06T08:25:17;14.70;;;10.98;;
45909;SDS011;31622;55.416;37.840;2022-07-06T08:27:43;12.20;;;10.77;;
45909;SDS011;31622;55.416;37.840;2022-07-06T08:30:09;11.52;;;10.27;;
45909;SDS011;31622;55.416;37.840;2022-07-06T08:32:38;11.73;;;10.52;;
45909;SDS011;31622;55.416;37.840;2022-07-06T08:35:08;11.98;;;10.35;;
45909;SDS011;31622;55.416;37.840;2022-07-06T08:37:34;10.95;;;9.85;;
45909;SDS011;31622;55.416;37.840;2022-07-06T08:39:59;11.52;;;10.02;;
45909;SDS011;31622;55.416;37.840;2022-07-06T08:42:26;16.42;;;11.05;;
45909;SDS011;31622;55.416;37.840;2022-07-06T08:44:55;17.48;;;11.15;;
45909;SDS011;31622;55.416;37.840;2022-07-06T08:47:29;13.50;;;10.00;;
45909;SDS011;31622;55.416;37.840;2022-07-06T08:49:56;16.95;;;10.48;;
45909;SDS011;31622;55.416;37.840;2022-07-06T08:52:22;12.60;;;10.18;;
45909;SDS011;31622;55.416;37.840;2022-07-06T08:54:48;13.23;;;10.60;;
45909;SDS011;31622;55.416;37.840;2022-07-06T08:57:14;13.50;;;10.60;;
45909;SDS011;31622;55.416;37.840;2022-07-06T08:59:40;13.20;;;10.55;;
45909;SDS011;31622;55.416;37.840;2022-07-06T09:02:06;12.93;;;10.25;;
45909;SDS011;31622;55.416;37.840;2022-07-06T09:04:35;12.32;;;10.27;;
45909;SDS011;31622;55.416;37.840;2022-07-06T09:07:01;11.18;;;9.80;;
45909;SDS011;31622;55.416;37.840;2022-07-06T09:09:27;14.60;;;10.60;;
45909;SDS011;31622;55.416;37.840;2022-07-06T09:11:55;14.00;;;12.02;;
45909;SDS011;31622;55.416;37.840;2022-07-06T09:14:21;13.38;;;10.90;;
45909;SDS011;31622;55.416;37.840;2022-07-06T09:16:49;12.57;;;10.52;;
45909;SDS011;31622;55.416;37.840;2022-07-06T09:19:17;12.25;;;10.68;;
45909;SDS011;31622;55.416;37.840;2022-07-06T09:21:42;12.90;;;9.85;;
45909;SDS011;31622;55.416;37.840;2022-07-06T09:24:09;11.07;;;9.88;;
45909;SDS011;31622;55.416;37.840;2022-07-06T09:26:35;10.68;;;9.15;;
45909;SDS011;31622;55.416;37.840;2022-07-06T09:29:01;10.90;;;9.73;;
45909;SDS011;31622;55.416;37.840;2022-07-06T09:31:27;11.57;;;9.93;;
45909;SDS011;31622;55.416;37.840;2022-07-06T09:33:53;12.60;;;9.10;;
45909;SDS011;31622;55.416;37.840;2022-07-06T09:36:40;10.63;;;9.52;;
45909;SDS011;31622;55.416;37.840;2022-07-06T09:39:44;10.57;;;9.43;;
45909;SDS011;31622;55.416;37.840;2022-07-06T09:42:03;12.32;;;9.43;;
45909;SDS011;31622;55.416;37.840;2022-07-06T09:44:30;9.90;;;8.85;;
45909;SDS011;31622;55.416;37.840;2022-07-06T09:47:01;10.18;;;9.18;;
45909;SDS011;31622;55.416;37.840;2022-07-06T09:49:28;9.63;;;8.63;;
45909;SDS011;31622;55.416;37.840;2022-07-06T09:51:55;9.63;;;8.60;;
45909;SDS011;31622;55.416;37.840;2022-07-06T09:54:22;11.80;;;9.93;;
45909;SDS011;31622;55.416;37.840;2022-07-06T09:56:48;14.98;;;10.25;;
45909;SDS011;31622;55.416;37.840;2022-07-06T09:59:17;16.90;;;10.15;;
45909;SDS011;31622;55.416;37.840;2022-07-06T10:01:44;13.48;;;9.73;;
45909;SDS011;31622;55.416;37.840;2022-07-06T10:04:11;11.93;;;9.20;;
45909;SDS011;31622;55.416;37.840;2022-07-06T10:06:38;11.05;;;9.27;;
45909;SDS011;31622;55.416;37.840;2022-07-06T10:09:08;12.73;;;8.95;;
45909;SDS011;31622;55.416;37.840;2022-07-06T10:11:37;11.82;;;9.65;;
45909;SDS011;31622;55.416;37.840;2022-07-06T10:14:04;9.65;;;8.65;;
45909;SDS011;31622;55.416;37.840;2022-07-06T10:16:31;10.30;;;8.93;;
45909;SDS011;31622;55.416;37.840;2022-07-06T10:18:57;10.68;;;9.57;;
45909;SDS011;31622;55.416;37.840;2022-07-06T10:21:24;10.23;;;9.23;;
45909;SDS011;31622;55.416;37.840;2022-07-06T10:23:50;10.50;;;9.43;;
45909;SDS011;31622;55.416;37.840;2022-07-06T10:26:16;9.43;;;8.38;;
45909;SDS011;31622;55.416;37.840;2022-07-06T10:28:43;9.45;;;8.55;;
45909;SDS011;31622;55.416;37.840;2022-07-06T10:31:11;9.63;;;8.68;;
45909;SDS011;31622;55.416;37.840;2022-07-06T10:33:37;12.25;;;9.02;;
45909;SDS011;31622;55.416;37.840;2022-07-06T10:36:03;10.82;;;8.63;;
45909;SDS011;31622;55.416;37.840;2022-07-06T10:38:30;9.23;;;8.32;;
45909;SDS011;31622;55.416;37.840;2022-07-06T10:41:04;10.32;;;8.50;;
45909;SDS011;31622;55.416;37.840;2022-07-06T10:45:57;10.05;;;9.00;;
45909;SDS011;31622;55.416;37.840;2022-07-06T10:48:23;10.55;;;8.88;;
45909;SDS011;31622;55.416;37.840;2022-07-06T10:50:53;9.75;;;8.85;;
45909;SDS011;31622;55.416;37.840;2022-07-06T10:53:26;10.20;;;8.57;;
45909;SDS011;31622;55.416;37.840;2022-07-06T10:55:59;10.23;;;9.23;;
45909;SDS011;31622;55.416;37.840;2022-07-06T11:01:11;10.23;;;8.98;;
45909;SDS011;31622;55.416;37.840;2022-07-06T11:03:44;10.82;;;9.73;;
45909;SDS011;31622;55.416;37.840;2022-07-06T11:06:15;9.88;;;8.90;;
45909;SDS011;31622;55.416;37.840;2022-07-06T11:11:22;9.75;;;8.75;;
45909;SDS011;31622;55.416;37.840;2022-07-06T11:13:53;10.88;;;9.77;;
45909;SDS011;31622;55.416;37.840;2022-07-06T11:16:21;10.40;;;9.30;;
45909;SDS011;31622;55.416;37.840;2022-07-06T11:21:36;9.73;;;8.75;;
45909;SDS011;31622;55.416;37.840;2022-07-06T11:24:12;10.02;;;8.98;;
45909;SDS011;31622;55.416;37.840;2022-07-06T11:29:06;10.10;;;9.05;;
45909;SDS011;31622;55.416;37.840;2022-07-06T11:31:37;9.15;;;8.25;;
45909;SDS011;31622;55.416;37.840;2022-07-06T11:34:04;10.05;;;8.73;;
45909;SDS011;31622;55.416;37.840;2022-07-06T11:36:31;9.50;;;8.60;;
45909;SDS011;31622;55.416;37.840;2022-07-06T11:38:57;10.95;;;9.10;;
45909;SDS011;31622;55.416;37.840;2022-07-06T11:41:22;10.48;;;9.45;;
45909;SDS011;31622;55.416;37.840;2022-07-06T11:43:48;12.80;;;7.65;;
45909;SDS011;31622;55.416;37.840;2022-07-06T11:48:53;8.77;;;5.88;;
45909;SDS011;31622;55.416;37.840;2022-07-06T11:51:29;8.85;;;5.75;;
45909;SDS011;31622;55.416;37.840;2022-07-06T11:53:56;7.20;;;5.05;;
45909;SDS011;31622;55.416;37.840;2022-07-06T11:56:24;7.97;;;4.95;;
45909;SDS011;31622;55.416;37.840;2022-07-06T11:58:53;11.15;;;5.97;;
45909;SDS011;31622;55.416;37.840;2022-07-06T12:01:23;10.25;;;6.13;;
45909;SDS011;31622;55.416;37.840;2022-07-06T12:03:53;12.00;;;6.07;;
45909;SDS011;31622;55.416;37.840;2022-07-06T12:06:23;8.27;;;5.50;;
45909;SDS011;31622;55.416;37.840;2022-07-06T12:08:53;9.25;;;6.20;;
45909;SDS011;31622;55.416;37.840;2022-07-06T12:13:49;9.13;;;5.88;;
45909;SDS011;31622;55.416;37.840;2022-07-06T12:16:16;9.00;;;6.00;;
45909;SDS011;31622;55.416;37.840;2022-07-06T12:18:46;8.55;;;6.00;;
45909;SDS011;31622;55.416;37.840;2022-07-06T12:21:17;8.63;;;6.35;;
45909;SDS011;31622;55.416;37.840;2022-07-06T12:23:50;8.55;;;5.88;;
45909;SDS011;31622;55.416;37.840;2022-07-06T12:26:17;7.18;;;5.82;;
45909;SDS011;31622;55.416;37.840;2022-07-06T12:28:45;8.85;;;6.00;;
45909;SDS011;31622;55.416;37.840;2022-07-06T12:31:11;6.80;;;6.10;;
45909;SDS011;31622;55.416;37.840;2022-07-06T12:33:37;10.35;;;5.82;;
45909;SDS011;31622;55.416;37.840;2022-07-06T12:36:12;8.18;;;6.15;;
45909;SDS011;31622;55.416;37.840;2022-07-06T12:38:46;7.65;;;6.57;;
45909;SDS011;31622;55.416;37.840;2022-07-06T12:41:25;11.07;;;6.88;;
45909;SDS011;31622;55.416;37.840;2022-07-06T12:44:07;9.23;;;5.97;;
45909;SDS011;31622;55.416;37.840;2022-07-06T12:46:37;6.68;;;5.90;;
45909;SDS011;31622;55.416;37.840;2022-07-06T12:49:14;7.13;;;6.13;;
45909;SDS011;31622;55.416;37.840;2022-07-06T12:52:15;6.95;;;6.22;;
45909;SDS011;31622;55.416;37.840;2022-07-06T12:54:47;10.13;;;6.88;;
45909;SDS011;31622;55.416;37.840;2022-07-06T12:57:17;11.32;;;7.68;;
45909;SDS011;31622;55.416;37.840;2022-07-06T13:00:02;9.13;;;7.13;;
45909;SDS011;31622;55.416;37.840;2022-07-06T13:02:31;8.57;;;7.10;;
45909;SDS011;31622;55.416;37.840;2022-07-06T13:05:03;8.32;;;6.30;;
45909;SDS011;31622;55.416;37.840;2022-07-06T13:07:31;7.78;;;6.43;;
45909;SDS011;31622;55.416;37.840;2022-07-06T13:10:00;25.88;;;7.28;;
45909;SDS011;31622;55.416;37.840;2022-07-06T13:12:27;12.27;;;6.22;;
45909;SDS011;31622;55.416;37.840;2022-07-06T13:14:53;9.68;;;6.57;;
45909;SDS011;31622;55.416;37.840;2022-07-06T13:17:19;13.05;;;7.18;;
45909;SDS011;31622;55.416;37.840;2022-07-06T13:19:44;8.32;;;6.95;;
45909;SDS011;31622;55.416;37.840;2022-07-06T13:22:10;11.98;;;7.00;;
45909;SDS011;31622;55.416;37.840;2022-07-06T13:24:36;7.25;;;5.88;;
45909;SDS011;31622;55.416;37.840;2022-07-06T13:27:02;7.13;;;6.43;;
45909;SDS011;31622;55.416;37.840;2022-07-06T13:29:28;8.80;;;6.40;;
45909;SDS011;31622;55.416;37.840;2022-07-06T13:31:53;8.27;;;6.30;;
45909;SDS011;31622;55.416;37.840;2022-07-06T13:34:19;7.72;;;6.13;;
45909;SDS011;31622;55.416;37.840;2022-07-06T13:36:44;10.30;;;6.50;;
45909;SDS011;31622;55.416;37.840;2022-07-06T13:39:10;8.35;;;6.50;;
45909;SDS011;31622;55.416;37.840;2022-07-06T13:41:35;7.72;;;6.25;;
45909;SDS011;31622;55.416;37.840;2022-07-06T13:44:01;9.68;;;6.07;;
45909;SDS011;31622;55.416;37.840;2022-07-06T13:46:28;8.45;;;6.03;;
45909;SDS011;31622;55.416;37.840;2022-07-06T13:48:54;6.93;;;5.70;;
45909;SDS011;31622;55.416;37.840;2022-07-06T13:51:21;6.57;;;5.88;;
45909;SDS011;31622;55.416;37.840;2022-07-06T13:53:47;7.85;;;5.63;;
45909;SDS011;31622;55.416;37.840;2022-07-06T13:56:12;6.03;;;5.43;;
45909;SDS011;31622;55.416;37.840;2022-07-06T13:58:38;6.78;;;6.00;;
45909;SDS011;31622;55.416;37.840;2022-07-06T14:01:04;6.50;;;5.82;;
45909;SDS011;31622;55.416;37.840;2022-07-06T14:03:30;7.68;;;5.75;;
45909;SDS011;31622;55.416;37.840;2022-07-06T14:05:59;7.38;;;6.05;;
45909;SDS011;31622;55.416;37.840;2022-07-06T14:08:25;6.80;;;5.50;;
45909;SDS011;31622;55.416;37.840;2022-07-06T14:10:52;7.95;;;6.20;;
45909;SDS011;31622;55.416;37.840;2022-07-06T14:13:18;6.93;;;6.22;;
45909;SDS011;31622;55.416;37.840;2022-07-06T14:15:44;7.20;;;6.50;;
45909;SDS011;31622;55.416;37.840;2022-07-06T14:18:09;7.10;;;6.40;;
45909;SDS011;31622;55.416;37.840;2022-07-06T14:20:35;7.90;;;6.03;;
45909;SDS011;31622;55.416;37.840;2022-07-06T14:23:01;7.13;;;6.43;;
45909;SDS011;31622;55.416;37.840;2022-07-06T14:25:26;6.88;;;6.10;;
45909;SDS011;31622;55.416;37.840;2022-07-06T14:27:52;8.25;;;6.68;;
45909;SDS011;31622;55.416;37.840;2022-07-06T14:30:17;8.27;;;6.47;;
45909;SDS011;31622;55.416;37.840;2022-07-06T14:32:43;7.93;;;5.88;;
45909;SDS011;31622;55.416;37.840;2022-07-06T14:35:09;7.28;;;5.63;;
45909;SDS011;31622;55.416;37.840;2022-07-06T14:37:35;9.90;;;5.90;;
45909;SDS011;31622;55.416;37.840;2022-07-06T14:40:01;7.57;;;6.28;;